createdAt,value
2022-09-30T00:00:00.349Z,0.0
2022-09-30T00:05:00.326Z,0.0
2022-09-30T00:10:00.345Z,0.0
2022-09-30T00:15:00.318Z,0.0
2022-09-30T00:20:00.362Z,0.0
2022-09-30T00:25:00.317Z,0.0
2022-09-30T00:30:00.334Z,0.0
2022-09-30T00:35:00.306Z,0.0
2022-09-30T00:40:00.367Z,0.0
2022-09-30T00:45:00.314Z,0.0
2022-09-30T00:50:00.297Z,0.0
2022-09-30T00:55:00.339Z,0.0
2022-09-30T01:00:01.154Z,0.0
2022-09-30T01:05:00.327Z,0.0
2022-09-30T01:10:00.337Z,0.0
2022-09-30T01:15:00.451Z,0.0
2022-09-30T01:20:00.374Z,0.0
2022-09-30T01:25:00.323Z,0.0
2022-09-30T01:30:00.363Z,0.0
2022-09-30T01:35:00.335Z,0.0
2022-09-30T01:40:00.327Z,0.0
2022-09-30T01:45:00.317Z,0.0
2022-09-30T01:50:00.332Z,0.0
2022-09-30T01:55:00.353Z,0.0
2022-09-30T02:00:00.375Z,0.0
2022-09-30T02:05:00.316Z,0.0
2022-09-30T02:10:00.346Z,0.0
2022-09-30T02:15:00.316Z,0.0
2022-09-30T02:20:00.315Z,0.0
2022-09-30T02:25:00.310Z,0.0
2022-09-30T02:30:00.355Z,0.0
2022-09-30T02:35:00.308Z,0.0
2022-09-30T02:40:00.360Z,0.0
2022-09-30T02:45:00.319Z,0.0
2022-09-30T02:50:00.335Z,0.0
2022-09-30T02:55:00.326Z,0.0
2022-09-30T03:00:06.860Z,0.0
2022-09-30T03:05:00.300Z,0.0
2022-09-30T03:10:00.347Z,0.0
2022-09-30T03:15:00.290Z,0.0
2022-09-30T03:20:00.331Z,0.0
2022-09-30T03:25:00.326Z,0.0
2022-09-30T03:30:00.330Z,0.0
2022-09-30T03:35:00.290Z,0.0
2022-09-30T03:40:00.356Z,0.0
2022-09-30T03:45:00.397Z,0.0
2022-09-30T03:50:00.363Z,0.0
2022-09-30T03:55:00.324Z,0.0
2022-09-30T04:00:00.346Z,0.0
2022-09-30T04:05:00.310Z,0.0
2022-09-30T04:10:00.347Z,0.0
2022-09-30T04:15:00.341Z,0.0
2022-09-30T04:20:00.316Z,0.0
2022-09-30T04:25:00.317Z,0.0
2022-09-30T04:30:00.346Z,0.0
2022-09-30T04:35:00.324Z,0.0
2022-09-30T04:40:00.331Z,0.0
2022-09-30T04:45:00.359Z,0.0
2022-09-30T04:50:00.373Z,0.0
2022-09-30T04:55:00.399Z,0.0
2022-09-30T05:00:00.421Z,0.0
2022-09-30T05:05:00.355Z,0.0
2022-09-30T05:10:00.385Z,0.0
2022-09-30T05:15:00.465Z,0.0
2022-09-30T05:20:00.354Z,0.0
2022-09-30T05:25:00.343Z,0.0
2022-09-30T05:30:00.680Z,0.0
2022-09-30T05:35:00.340Z,0.0
2022-09-30T05:40:00.609Z,0.0
2022-09-30T05:45:00.441Z,0.0
2022-09-30T05:50:00.423Z,0.0
2022-09-30T05:55:00.358Z,0.0
2022-09-30T06:00:00.466Z,0.0
2022-09-30T06:05:00.344Z,0.0
2022-09-30T06:10:00.558Z,0.0
2022-09-30T06:15:00.413Z,0.0
2022-09-30T06:20:00.540Z,0.0
2022-09-30T06:25:00.362Z,0.0
2022-09-30T06:30:00.502Z,0.0
2022-09-30T06:35:00.352Z,0.0
2022-09-30T06:40:00.445Z,0.0
2022-09-30T06:45:00.344Z,0.0
2022-09-30T06:50:00.590Z,1.8
2022-09-30T06:55:00.365Z,0.0
2022-09-30T07:00:00.497Z,0.0
2022-09-30T07:05:00.363Z,2.2
2022-09-30T07:10:00.632Z,5.8
2022-09-30T07:15:00.398Z,2.5
2022-09-30T07:20:00.537Z,2.9
2022-09-30T07:25:00.355Z,0.0
2022-09-30T07:30:26.081Z,0.0
2022-09-30T07:35:00.350Z,0.0
2022-09-30T07:40:00.514Z,8.3
2022-09-30T07:45:00.354Z,5.0
2022-09-30T07:50:00.486Z,9.4
2022-09-30T07:55:00.339Z,6.1
2022-09-30T08:00:40.921Z,7.2
2022-09-30T08:05:00.370Z,4.0
2022-09-30T08:10:00.905Z,2.5
2022-09-30T08:15:00.350Z,9.7
2022-09-30T08:20:00.511Z,13.3
2022-09-30T08:25:00.376Z,6.8
2022-09-30T08:30:05.348Z,4.0
2022-09-30T08:35:00.360Z,5.8
2022-09-30T08:40:00.411Z,6.5
2022-09-30T08:45:00.338Z,4.7
2022-09-30T08:50:00.345Z,5.4
2022-09-30T08:55:00.390Z,10.8
2022-09-30T09:00:00.361Z,2.5
2022-09-30T09:05:00.356Z,4.7
2022-09-30T09:10:00.455Z,13.0
2022-09-30T09:15:00.363Z,9.0
2022-09-30T09:20:00.406Z,8.3
2022-09-30T09:25:00.339Z,2.5
2022-09-30T09:30:00.382Z,7.2
2022-09-30T09:35:00.359Z,5.0
2022-09-30T09:40:07.157Z,5.8
2022-09-30T09:45:00.334Z,8.3
2022-09-30T09:50:00.335Z,10.1
2022-09-30T09:55:00.301Z,9.4
2022-09-30T10:05:00.442Z,9.4
2022-09-30T10:10:00.323Z,14.8
2022-09-30T10:15:00.330Z,11.2
2022-09-30T10:20:00.338Z,12.2
2022-09-30T10:25:00.302Z,10.4
2022-09-30T10:30:00.409Z,15.1
2022-09-30T10:35:00.325Z,3.6
2022-09-30T10:40:00.309Z,5.8
2022-09-30T10:45:00.298Z,11.9
2022-09-30T10:50:00.318Z,6.5
2022-09-30T10:55:00.330Z,4.7
2022-09-30T11:00:00.323Z,16.9
2022-09-30T11:05:00.313Z,15.5
2022-09-30T11:10:00.345Z,9.7
2022-09-30T11:15:00.354Z,12.6
2022-09-30T11:20:00.337Z,8.3
2022-09-30T11:25:00.307Z,7.2
2022-09-30T11:30:00.339Z,7.9
2022-09-30T11:35:00.320Z,3.6
2022-09-30T11:40:00.328Z,6.1
2022-09-30T11:45:00.349Z,4.0
2022-09-30T11:50:00.337Z,3.6
2022-09-30T11:55:00.320Z,10.1
2022-09-30T12:00:00.380Z,14.4
2022-09-30T12:05:00.307Z,7.6
2022-09-30T12:10:00.344Z,5.0
2022-09-30T12:15:00.317Z,6.5
2022-09-30T12:20:00.307Z,9.0
2022-09-30T12:25:00.301Z,6.5
2022-09-30T12:30:00.353Z,11.2
2022-09-30T12:35:00.286Z,9.4
2022-09-30T12:40:00.322Z,7.9
2022-09-30T12:45:00.357Z,4.3
2022-09-30T12:50:00.303Z,6.5
2022-09-30T12:55:00.386Z,14.8
2022-09-30T13:00:00.337Z,10.4
2022-09-30T13:05:00.338Z,7.9
2022-09-30T13:10:00.390Z,14.4
2022-09-30T13:15:00.331Z,4.7
2022-09-30T13:20:00.367Z,14.0
2022-09-30T13:25:00.330Z,6.5
2022-09-30T13:30:00.369Z,9.4
2022-09-30T13:35:00.336Z,10.8
2022-09-30T13:40:00.357Z,6.5
2022-09-30T13:45:00.374Z,16.9
2022-09-30T13:50:00.377Z,9.0
2022-09-30T13:55:00.332Z,14.8
2022-09-30T14:00:00.390Z,9.0
2022-09-30T14:05:00.310Z,9.4
2022-09-30T14:10:00.516Z,11.2
2022-09-30T14:15:00.352Z,14.4
2022-09-30T14:20:00.350Z,7.9
2022-09-30T14:25:00.343Z,8.6
2022-09-30T14:30:00.348Z,4.7
2022-09-30T14:35:00.330Z,7.2
2022-09-30T14:40:00.350Z,7.9
2022-09-30T14:45:00.340Z,7.2
2022-09-30T14:50:00.352Z,8.3
2022-09-30T14:55:00.311Z,6.8
2022-09-30T15:00:00.401Z,5.0
2022-09-30T15:05:01.931Z,6.8
2022-09-30T15:10:00.344Z,6.1
2022-09-30T15:15:00.331Z,6.1
2022-09-30T15:20:00.438Z,3.2
2022-09-30T15:25:00.289Z,6.5
2022-09-30T15:30:00.373Z,4.3
2022-09-30T15:35:00.337Z,9.0
2022-09-30T15:40:00.331Z,7.2
2022-09-30T15:45:00.311Z,1.4
2022-09-30T15:50:00.348Z,10.1
2022-09-30T15:55:00.289Z,2.9
2022-09-30T16:00:00.404Z,4.0
2022-09-30T16:05:00.312Z,2.9
2022-09-30T16:10:00.348Z,1.4
2022-09-30T16:15:00.518Z,0.0
2022-09-30T16:20:00.357Z,0.0
2022-09-30T16:25:00.340Z,0.0
2022-09-30T16:30:00.387Z,0.0
2022-09-30T16:35:00.326Z,0.0
2022-09-30T16:40:00.368Z,0.0
2022-09-30T16:45:00.326Z,0.0
2022-09-30T16:50:00.353Z,1.4
2022-09-30T16:55:00.303Z,2.2
2022-09-30T17:00:00.655Z,0.0
2022-09-30T17:05:00.316Z,0.0
2022-09-30T17:10:00.617Z,0.0
2022-09-30T17:15:00.327Z,0.0
2022-09-30T17:20:00.582Z,0.0
2022-09-30T17:25:00.317Z,0.0
2022-09-30T17:30:00.365Z,0.0
2022-09-30T17:35:00.329Z,0.0
2022-09-30T17:40:00.343Z,0.0
2022-09-30T17:45:00.315Z,0.0
2022-09-30T17:50:00.353Z,0.0
2022-09-30T17:55:00.319Z,0.0
2022-09-30T18:00:00.435Z,0.0
2022-09-30T18:05:00.316Z,0.0
2022-09-30T18:10:00.338Z,0.0
2022-09-30T18:15:00.344Z,0.0
2022-09-30T18:20:00.330Z,0.0
2022-09-30T18:25:00.318Z,0.0
2022-09-30T18:30:00.342Z,0.0
2022-09-30T18:35:00.315Z,0.0
2022-09-30T18:40:00.346Z,0.0
2022-09-30T18:45:00.316Z,0.0
2022-09-30T18:50:00.345Z,0.0
2022-09-30T18:55:00.344Z,0.0
2022-09-30T19:00:00.361Z,0.0
2022-09-30T19:05:00.483Z,0.0
2022-09-30T19:10:00.361Z,0.0
2022-09-30T19:15:00.337Z,0.0
2022-09-30T19:20:00.341Z,0.0
2022-09-30T19:25:00.314Z,0.0
2022-09-30T19:30:00.419Z,0.0
2022-09-30T19:35:07.141Z,0.0
2022-09-30T19:40:21.702Z,0.0
2022-09-30T19:45:00.298Z,0.0
2022-09-30T19:50:00.399Z,0.0
2022-09-30T19:55:16.985Z,0.0
2022-09-30T20:00:05.755Z,0.0
2022-09-30T20:05:00.293Z,0.0
2022-09-30T20:10:00.328Z,0.0
2022-09-30T20:15:00.343Z,0.0
2022-09-30T20:20:00.330Z,0.0
2022-09-30T20:25:00.304Z,0.0
2022-09-30T20:30:00.348Z,0.0
2022-09-30T20:35:00.303Z,0.0
2022-09-30T20:40:00.339Z,0.0
2022-09-30T20:45:00.310Z,0.0
2022-09-30T20:50:00.372Z,0.0
2022-09-30T20:55:00.843Z,0.0
2022-09-30T21:00:00.530Z,0.0
2022-09-30T21:05:00.298Z,0.0
2022-09-30T21:10:00.322Z,0.0
2022-09-30T21:15:00.282Z,0.0
2022-09-30T21:20:00.325Z,0.0
2022-09-30T21:25:00.286Z,0.0
2022-09-30T21:30:00.380Z,0.0
2022-09-30T21:35:00.291Z,0.0
2022-09-30T21:40:00.326Z,0.0
2022-09-30T21:45:00.298Z,0.0
2022-09-30T21:50:00.315Z,0.0
2022-09-30T21:55:00.320Z,0.0
2022-09-30T22:00:00.412Z,0.0
2022-09-30T22:05:00.284Z,0.0
2022-09-30T22:10:00.316Z,0.0
2022-09-30T22:15:00.289Z,3.2
2022-09-30T22:20:00.315Z,1.8
2022-09-30T22:25:00.307Z,0.0
2022-09-30T22:30:00.339Z,0.0
2022-09-30T22:35:00.305Z,0.0
2022-09-30T22:40:01.531Z,2.5
2022-09-30T22:45:00.302Z,0.0
2022-09-30T22:50:00.306Z,0.0
2022-09-30T22:55:00.321Z,0.0
2022-09-30T23:00:00.324Z,0.0
2022-09-30T23:05:00.292Z,0.0
2022-09-30T23:10:00.319Z,0.0
2022-09-30T23:15:00.324Z,1.1
2022-09-30T23:20:00.295Z,0.0
2022-09-30T23:25:00.357Z,0.0
2022-09-30T23:30:00.318Z,0.0
2022-09-30T23:35:00.306Z,0.0
2022-09-30T23:40:00.352Z,0.0
2022-09-30T23:45:00.316Z,0.0
2022-09-30T23:50:00.337Z,0.0
2022-09-30T23:55:00.297Z,0.0
